sensor_id;sensor_type;location;lat;lon;timestamp;pressure;altitude;pressure_sealevel;temperature;humidity
47785;BME280;35233;55.686;37.848;2023-04-29T00:01:15;99508.47;;;17.15;48.71
47785;BME280;35233;55.686;37.848;2023-04-29T00:03:40;99507.13;;;17.08;48.97
47785;BME280;35233;55.686;37.848;2023-04-29T00:06:06;99520.34;;;17.09;48.69
47785;BME280;35233;55.686;37.848;2023-04-29T00:08:31;99514.34;;;17.06;48.35
47785;BME280;35233;55.686;37.848;2023-04-29T00:10:58;99514.53;;;17.03;48.23
47785;BME280;35233;55.686;37.848;2023-04-29T00:13:27;99502.28;;;16.98;48.77
47785;BME280;35233;55.686;37.848;2023-04-29T00:15:54;99503.16;;;16.99;48.76
47785;BME280;35233;55.686;37.848;2023-04-29T00:18:19;99498.50;;;17.03;48.12
47785;BME280;35233;55.686;37.848;2023-04-29T00:20:45;99505.47;;;17.05;48.46
47785;BME280;35233;55.686;37.848;2023-04-29T00:23:10;99508.16;;;17.05;47.92
47785;BME280;35233;55.686;37.848;2023-04-29T00:25:42;99509.53;;;16.96;48.08
47785;BME280;35233;55.686;37.848;2023-04-29T00:28:28;99504.94;;;16.98;48.01
47785;BME280;35233;55.686;37.848;2023-04-29T00:30:53;99501.25;;;17.01;48.36
47785;BME280;35233;55.686;37.848;2023-04-29T00:33:20;99497.66;;;17.02;48.20
47785;BME280;35233;55.686;37.848;2023-04-29T00:35:45;99496.28;;;16.95;47.88
47785;BME280;35233;55.686;37.848;2023-04-29T00:38:11;99492.13;;;16.89;48.26
47785;BME280;35233;55.686;37.848;2023-04-29T00:40:36;99485.16;;;16.87;47.64
47785;BME280;35233;55.686;37.848;2023-04-29T00:43:02;99494.72;;;16.91;48.00
47785;BME280;35233;55.686;37.848;2023-04-29T00:45:27;99477.69;;;16.93;47.95
47785;BME280;35233;55.686;37.848;2023-04-29T00:47:53;99476.91;;;16.91;47.73
47785;BME280;35233;55.686;37.848;2023-04-29T00:50:18;99480.59;;;16.89;47.56
47785;BME280;35233;55.686;37.848;2023-04-29T00:52:46;99465.63;;;16.86;48.38
47785;BME280;35233;55.686;37.848;2023-04-29T00:55:12;99453.94;;;16.89;47.97
47785;BME280;35233;55.686;37.848;2023-04-29T00:57:38;99457.56;;;16.88;47.39
47785;BME280;35233;55.686;37.848;2023-04-29T01:00:04;99465.13;;;16.80;47.65
47785;BME280;35233;55.686;37.848;2023-04-29T01:02:30;99464.44;;;16.76;47.78
47785;BME280;35233;55.686;37.848;2023-04-29T01:04:55;99474.94;;;16.79;47.62
47785;BME280;35233;55.686;37.848;2023-04-29T01:07:33;99480.88;;;16.84;47.95
47785;BME280;35233;55.686;37.848;2023-04-29T01:10:16;99477.16;;;16.87;47.85
47785;BME280;35233;55.686;37.848;2023-04-29T01:12:45;99487.09;;;16.85;47.28
47785;BME280;35233;55.686;37.848;2023-04-29T01:15:22;99496.78;;;16.86;47.50
47785;BME280;35233;55.686;37.848;2023-04-29T01:17:58;99505.66;;;16.86;47.55
47785;BME280;35233;55.686;37.848;2023-04-29T01:20:25;99506.44;;;16.88;47.23
47785;BME280;35233;55.686;37.848;2023-04-29T01:22:50;99509.97;;;16.89;47.54
47785;BME280;35233;55.686;37.848;2023-04-29T01:25:16;99505.59;;;16.88;47.67
47785;BME280;35233;55.686;37.848;2023-04-29T01:31:06;99507.56;;;16.84;47.33
47785;BME280;35233;55.686;37.848;2023-04-29T01:36:22;99510.31;;;16.83;47.77
47785;BME280;35233;55.686;37.848;2023-04-29T01:41:43;99503.16;;;16.83;47.17
47785;BME280;35233;55.686;37.848;2023-04-29T01:44:21;99493.34;;;16.84;46.92
47785;BME280;35233;55.686;37.848;2023-04-29T01:46:52;99500.41;;;16.85;46.90
47785;BME280;35233;55.686;37.848;2023-04-29T01:49:23;99493.34;;;16.84;47.06
47785;BME280;35233;55.686;37.848;2023-04-29T01:51:49;99497.66;;;16.86;47.33
47785;BME280;35233;55.686;37.848;2023-04-29T01:54:15;99504.72;;;16.87;47.45
47785;BME280;35233;55.686;37.848;2023-04-29T01:56:40;99501.34;;;16.84;46.97
47785;BME280;35233;55.686;37.848;2023-04-29T01:59:06;99513.84;;;16.83;47.62
47785;BME280;35233;55.686;37.848;2023-04-29T02:01:32;99510.13;;;16.86;47.50
47785;BME280;35233;55.686;37.848;2023-04-29T02:03:58;99513.66;;;16.86;47.07
47785;BME280;35233;55.686;37.848;2023-04-29T02:06:24;99512.81;;;16.86;47.29
47785;BME280;35233;55.686;37.848;2023-04-29T02:08:49;99511.09;;;16.85;46.99
47785;BME280;35233;55.686;37.848;2023-04-29T02:11:15;99498.84;;;16.81;47.20
47785;BME280;35233;55.686;37.848;2023-04-29T02:13:40;99495.34;;;16.80;47.37
47785;BME280;35233;55.686;37.848;2023-04-29T02:16:10;99488.00;;;16.84;47.26
47785;BME280;35233;55.686;37.848;2023-04-29T02:18:36;99485.44;;;16.82;46.84
47785;BME280;35233;55.686;37.848;2023-04-29T02:21:02;99482.66;;;16.84;47.51
47785;BME280;35233;55.686;37.848;2023-04-29T02:23:28;99488.00;;;16.84;47.34
47785;BME280;35233;55.686;37.848;2023-04-29T02:25:53;99500.50;;;16.83;47.72
47785;BME280;35233;55.686;37.848;2023-04-29T02:28:19;99500.41;;;16.85;47.56
47785;BME280;35233;55.686;37.848;2023-04-29T02:30:45;99500.41;;;16.85;47.23
47785;BME280;35233;55.686;37.848;2023-04-29T02:33:10;99504.91;;;16.84;47.06
47785;BME280;35233;55.686;37.848;2023-04-29T02:35:36;99519.09;;;16.85;46.85
47785;BME280;35233;55.686;37.848;2023-04-29T02:38:01;99517.34;;;16.84;47.14
47785;BME280;35233;55.686;37.848;2023-04-29T02:40:27;99528.13;;;16.82;47.14
47785;BME280;35233;55.686;37.848;2023-04-29T02:42:53;99535.19;;;16.83;47.57
47785;BME280;35233;55.686;37.848;2023-04-29T02:45:18;99541.38;;;16.84;46.80
47785;BME280;35233;55.686;37.848;2023-04-29T02:47:44;99543.28;;;16.82;47.21
47785;BME280;35233;55.686;37.848;2023-04-29T02:50:09;99558.00;;;16.89;47.20
47785;BME280;35233;55.686;37.848;2023-04-29T02:52:35;99557.47;;;16.82;47.50
47785;BME280;35233;55.686;37.848;2023-04-29T02:55:01;99569.97;;;16.82;46.89
47785;BME280;35233;55.686;37.848;2023-04-29T02:57:26;99565.72;;;16.78;47.05
47785;BME280;35233;55.686;37.848;2023-04-29T02:59:53;99564.03;;;16.75;47.46
47785;BME280;35233;55.686;37.848;2023-04-29T03:02:19;99567.53;;;16.77;47.32
47785;BME280;35233;55.686;37.848;2023-04-29T03:04:45;99577.34;;;16.77;47.07
47785;BME280;35233;55.686;37.848;2023-04-29T03:07:11;99577.38;;;16.75;47.47
47785;BME280;35233;55.686;37.848;2023-04-29T03:09:36;99589.06;;;16.72;47.32
47785;BME280;35233;55.686;37.848;2023-04-29T03:12:02;99593.38;;;16.75;46.88
47785;BME280;35233;55.686;37.848;2023-04-29T03:14:27;99599.00;;;16.70;47.44
47785;BME280;35233;55.686;37.848;2023-04-29T03:16:53;99594.84;;;16.65;47.51
47785;BME280;35233;55.686;37.848;2023-04-29T03:19:20;99606.31;;;16.67;47.23
47785;BME280;35233;55.686;37.848;2023-04-29T03:21:46;99600.03;;;16.68;47.28
47785;BME280;35233;55.686;37.848;2023-04-29T03:24:11;99606.91;;;16.72;47.19
47785;BME280;35233;55.686;37.848;2023-04-29T03:26:37;99604.34;;;16.70;46.74
47785;BME280;35233;55.686;37.848;2023-04-29T03:29:02;99605.19;;;16.71;47.08
47785;BME280;35233;55.686;37.848;2023-04-29T03:31:27;99604.34;;;16.70;46.80
47785;BME280;35233;55.686;37.848;2023-04-29T03:33:53;99611.38;;;16.71;47.40
47785;BME280;35233;55.686;37.848;2023-04-29T03:36:19;99612.16;;;16.73;47.22
47785;BME280;35233;55.686;37.848;2023-04-29T03:38:44;99616.88;;;16.68;47.21
47785;BME280;35233;55.686;37.848;2023-04-29T03:41:10;99609.66;;;16.70;46.62
47785;BME280;35233;55.686;37.848;2023-04-29T03:43:36;99601.84;;;16.67;46.86
47785;BME280;35233;55.686;37.848;2023-04-29T03:46:01;99611.53;;;16.68;46.79
47785;BME280;35233;55.686;37.848;2023-04-29T03:48:27;99625.75;;;16.69;46.52
47785;BME280;35233;55.686;37.848;2023-04-29T03:50:52;99620.66;;;16.64;47.00
47785;BME280;35233;55.686;37.848;2023-04-29T03:53:18;99622.38;;;16.65;46.98
47785;BME280;35233;55.686;37.848;2023-04-29T03:55:43;99630.44;;;16.64;47.15
47785;BME280;35233;55.686;37.848;2023-04-29T03:58:09;99629.69;;;16.62;46.64
47785;BME280;35233;55.686;37.848;2023-04-29T04:00:35;99644.50;;;16.67;46.71
47785;BME280;35233;55.686;37.848;2023-04-29T04:03:00;99645.19;;;16.71;46.39
47785;BME280;35233;55.686;37.848;2023-04-29T04:05:26;99645.44;;;16.66;46.89
47785;BME280;35233;55.686;37.848;2023-04-29T04:07:52;99652.50;;;16.67;46.41
47785;BME280;35233;55.686;37.848;2023-04-29T04:10:17;99654.56;;;16.62;46.84
47785;BME280;35233;55.686;37.848;2023-04-29T04:12:43;99645.59;;;16.63;46.77
47785;BME280;35233;55.686;37.848;2023-04-29T04:15:09;99644.13;;;16.58;46.98
47785;BME280;35233;55.686;37.848;2023-04-29T04:17:34;99644.75;;;16.63;46.55
47785;BME280;35233;55.686;37.848;2023-04-29T04:20:00;99645.53;;;16.65;46.42
47785;BME280;35233;55.686;37.848;2023-04-29T04:22:25;99643.56;;;16.68;46.52
47785;BME280;35233;55.686;37.848;2023-04-29T04:24:53;99656.66;;;16.73;45.99
47785;BME280;35233;55.686;37.848;2023-04-29T04:27:19;99650.59;;;16.69;46.82
47785;BME280;35233;55.686;37.848;2023-04-29T04:29:45;99635.09;;;16.60;46.34
47785;BME280;35233;55.686;37.848;2023-04-29T04:32:10;99649.84;;;16.67;45.82
47785;BME280;35233;55.686;37.848;2023-04-29T04:34:35;99649.06;;;16.65;46.46
47785;BME280;35233;55.686;37.848;2023-04-29T04:37:03;99651.78;;;16.64;47.20
47785;BME280;35233;55.686;37.848;2023-04-29T04:39:29;99641.06;;;16.65;47.35
47785;BME280;35233;55.686;37.848;2023-04-29T04:41:54;99648.88;;;16.68;45.89
47785;BME280;35233;55.686;37.848;2023-04-29T04:44:20;99646.91;;;16.72;45.78
47785;BME280;35233;55.686;37.848;2023-04-29T04:46:45;99647.50;;;16.79;45.90
47785;BME280;35233;55.686;37.848;2023-04-29T04:49:11;99649.91;;;16.83;45.75
47785;BME280;35233;55.686;37.848;2023-04-29T04:51:36;99644.84;;;16.79;45.53
47785;BME280;35233;55.686;37.848;2023-04-29T04:54:02;99652.56;;;16.83;45.54
47785;BME280;35233;55.686;37.848;2023-04-29T04:56:27;99657.84;;;16.85;45.79
47785;BME280;35233;55.686;37.848;2023-04-29T04:58:53;99647.22;;;16.83;45.62
47785;BME280;35233;55.686;37.848;2023-04-29T05:01:18;99648.19;;;16.82;45.43
47785;BME280;35233;55.686;37.848;2023-04-29T05:03:44;99636.31;;;16.88;44.91
47785;BME280;35233;55.686;37.848;2023-04-29T05:06:09;99642.50;;;16.88;45.09
47785;BME280;35233;55.686;37.848;2023-04-29T05:08:34;99635.19;;;16.92;44.73
47785;BME280;35233;55.686;37.848;2023-04-29T05:11:00;99626.25;;;16.93;45.10
47785;BME280;35233;55.686;37.848;2023-04-29T05:13:26;99627.72;;;16.98;44.94
47785;BME280;35233;55.686;37.848;2023-04-29T05:15:51;99618.50;;;17.04;44.56
47785;BME280;35233;55.686;37.848;2023-04-29T05:18:17;99633.06;;;17.14;45.03
47785;BME280;35233;55.686;37.848;2023-04-29T05:20:42;99635.75;;;17.14;44.61
47785;BME280;35233;55.686;37.848;2023-04-29T05:23:07;99638.41;;;17.14;44.59
47785;BME280;35233;55.686;37.848;2023-04-29T05:25:34;99651.75;;;17.14;44.19
47785;BME280;35233;55.686;37.848;2023-04-29T05:28:01;99655.69;;;17.07;44.75
47785;BME280;35233;55.686;37.848;2023-04-29T05:30:27;99661.94;;;17.08;45.46
47785;BME280;35233;55.686;37.848;2023-04-29T05:32:53;99657.84;;;17.01;45.08
47785;BME280;35233;55.686;37.848;2023-04-29T05:35:18;99665.84;;;17.01;45.99
47785;BME280;35233;55.686;37.848;2023-04-29T05:37:44;99667.84;;;16.97;44.96
47785;BME280;35233;55.686;37.848;2023-04-29T05:40:10;99656.72;;;16.89;44.38
47785;BME280;35233;55.686;37.848;2023-04-29T05:42:35;99664.38;;;16.95;44.83
47785;BME280;35233;55.686;37.848;2023-04-29T05:45:01;99664.72;;;16.89;45.96
47785;BME280;35233;55.686;37.848;2023-04-29T05:47:27;99676.97;;;16.93;45.98
47785;BME280;35233;55.686;37.848;2023-04-29T05:49:52;99673.19;;;16.97;44.32
47785;BME280;35233;55.686;37.848;2023-04-29T05:52:17;99674.13;;;16.96;45.18
47785;BME280;35233;55.686;37.848;2023-04-29T05:54:43;99680.41;;;16.95;44.61
47785;BME280;35233;55.686;37.848;2023-04-29T05:57:08;99682.81;;;17.00;44.44
47785;BME280;35233;55.686;37.848;2023-04-29T05:59:34;99686.13;;;17.05;44.03
47785;BME280;35233;55.686;37.848;2023-04-29T06:02:00;99691.69;;;17.16;43.62
47785;BME280;35233;55.686;37.848;2023-04-29T06:04:26;99685.34;;;17.18;44.61
47785;BME280;35233;55.686;37.848;2023-04-29T06:06:52;99696.88;;;17.19;43.60
47785;BME280;35233;55.686;37.848;2023-04-29T06:09:21;99699.28;;;17.08;45.88
47785;BME280;35233;55.686;37.848;2023-04-29T06:11:50;99703.44;;;17.13;44.14
47785;BME280;35233;55.686;37.848;2023-04-29T06:14:16;99694.38;;;17.16;43.63
47785;BME280;35233;55.686;37.848;2023-04-29T06:16:42;99699.81;;;17.14;44.22
47785;BME280;35233;55.686;37.848;2023-04-29T06:19:09;99706.84;;;17.15;44.27
47785;BME280;35233;55.686;37.848;2023-04-29T06:21:38;99711.09;;;17.19;44.39
47785;BME280;35233;55.686;37.848;2023-04-29T06:24:05;99720.22;;;17.15;43.83
47785;BME280;35233;55.686;37.848;2023-04-29T06:26:30;99725.47;;;17.17;44.81
47785;BME280;35233;55.686;37.848;2023-04-29T06:28:56;99726.34;;;17.17;43.98
47785;BME280;35233;55.686;37.848;2023-04-29T06:31:21;99727.72;;;17.25;43.63
47785;BME280;35233;55.686;37.848;2023-04-29T06:33:47;99732.56;;;17.34;43.49
47785;BME280;35233;55.686;37.848;2023-04-29T06:36:31;99743.78;;;17.40;42.77
47785;BME280;35233;55.686;37.848;2023-04-29T06:38:57;99736.16;;;17.33;43.25
47785;BME280;35233;55.686;37.848;2023-04-29T06:41:22;99748.09;;;17.43;43.27
47785;BME280;35233;55.686;37.848;2023-04-29T06:43:48;99756.44;;;17.53;43.73
47785;BME280;35233;55.686;37.848;2023-04-29T06:46:32;99745.81;;;17.19;45.02
47785;BME280;35233;55.686;37.848;2023-04-29T06:49:15;99757.19;;;16.55;47.76
47785;BME280;35233;55.686;37.848;2023-04-29T06:51:59;99760.28;;;16.28;48.54
47785;BME280;35233;55.686;37.848;2023-04-29T06:54:26;99756.25;;;16.20;47.91
47785;BME280;35233;55.686;37.848;2023-04-29T06:56:53;99757.00;;;16.23;48.35
47785;BME280;35233;55.686;37.848;2023-04-29T06:59:18;99757.75;;;16.25;48.16
47785;BME280;35233;55.686;37.848;2023-04-29T07:02:21;99772.69;;;16.29;48.90
47785;BME280;35233;55.686;37.848;2023-04-29T07:04:47;99766.88;;;16.39;48.83
47785;BME280;35233;55.686;37.848;2023-04-29T07:07:14;99763.59;;;16.51;48.06
47785;BME280;35233;55.686;37.848;2023-04-29T07:09:39;99775.06;;;16.53;48.25
47785;BME280;35233;55.686;37.848;2023-04-29T07:12:05;99772.44;;;16.51;48.09
47785;BME280;35233;55.686;37.848;2023-04-29T07:14:30;99780.41;;;17.21;47.84
47785;BME280;35233;55.686;37.848;2023-04-29T07:16:56;99775.63;;;17.93;44.51
47785;BME280;35233;55.686;37.848;2023-04-29T07:19:21;99782.59;;;18.11;44.28
47785;BME280;35233;55.686;37.848;2023-04-29T07:21:47;99798.28;;;17.36;46.14
47785;BME280;35233;55.686;37.848;2023-04-29T07:24:12;99788.25;;;16.91;47.87
47785;BME280;35233;55.686;37.848;2023-04-29T07:26:38;99795.72;;;16.84;47.66
47785;BME280;35233;55.686;37.848;2023-04-29T07:29:03;99795.16;;;16.78;48.11
47785;BME280;35233;55.686;37.848;2023-04-29T07:31:29;99798.44;;;16.83;48.16
47785;BME280;35233;55.686;37.848;2023-04-29T07:33:54;99807.47;;;16.80;48.07
47785;BME280;35233;55.686;37.848;2023-04-29T07:36:20;99810.38;;;16.75;47.76
47785;BME280;35233;55.686;37.848;2023-04-29T07:38:45;99797.56;;;16.65;48.49
47785;BME280;35233;55.686;37.848;2023-04-29T07:41:11;99800.28;;;16.63;48.13
47785;BME280;35233;55.686;37.848;2023-04-29T07:43:36;99797.72;;;16.62;48.16
47785;BME280;35233;55.686;37.848;2023-04-29T07:46:02;99808.63;;;16.57;48.51
47785;BME280;35233;55.686;37.848;2023-04-29T07:48:27;99811.44;;;16.71;47.77
47785;BME280;35233;55.686;37.848;2023-04-29T07:50:53;99825.16;;;16.64;49.02
47785;BME280;35233;55.686;37.848;2023-04-29T07:53:19;99815.97;;;16.69;48.06
47785;BME280;35233;55.686;37.848;2023-04-29T07:55:44;99825.06;;;16.84;47.97
47785;BME280;35233;55.686;37.848;2023-04-29T07:58:10;99831.72;;;16.75;48.66
47785;BME280;35233;55.686;37.848;2023-04-29T08:00:35;99825.09;;;16.65;48.53
47785;BME280;35233;55.686;37.848;2023-04-29T08:03:01;99833.47;;;16.58;49.13
47785;BME280;35233;55.686;37.848;2023-04-29T08:05:27;99844.13;;;16.40;48.72
47785;BME280;35233;55.686;37.848;2023-04-29T08:07:54;99849.47;;;16.58;48.82
47785;BME280;35233;55.686;37.848;2023-04-29T08:10:20;99838.44;;;16.65;48.49
47785;BME280;35233;55.686;37.848;2023-04-29T08:12:49;99853.06;;;16.75;48.65
47785;BME280;35233;55.686;37.848;2023-04-29T08:15:15;99842.66;;;16.69;48.26
47785;BME280;35233;55.686;37.848;2023-04-29T08:17:40;99830.28;;;16.68;48.35
47785;BME280;35233;55.686;37.848;2023-04-29T08:20:07;99838.31;;;16.86;48.42
47785;BME280;35233;55.686;37.848;2023-04-29T08:22:33;99843.34;;;16.92;47.87
47785;BME280;35233;55.686;37.848;2023-04-29T08:24:59;99848.03;;;17.04;47.58
47785;BME280;35233;55.686;37.848;2023-04-29T08:27:25;99843.16;;;17.12;47.69
47785;BME280;35233;55.686;37.848;2023-04-29T08:29:51;99834.47;;;17.09;48.06
47785;BME280;35233;55.686;37.848;2023-04-29T08:32:16;99848.28;;;17.17;47.83
47785;BME280;35233;55.686;37.848;2023-04-29T08:34:42;99839.63;;;17.12;47.98
47785;BME280;35233;55.686;37.848;2023-04-29T08:37:09;99819.81;;;16.83;48.00
47785;BME280;35233;55.686;37.848;2023-04-29T08:39:34;99844.75;;;16.99;47.98
47785;BME280;35233;55.686;37.848;2023-04-29T08:42:07;99853.53;;;17.01;47.89
47785;BME280;35233;55.686;37.848;2023-04-29T08:44:32;99853.38;;;17.04;48.30
47785;BME280;35233;55.686;37.848;2023-04-29T08:46:59;99846.81;;;16.94;48.68
47785;BME280;35233;55.686;37.848;2023-04-29T08:49:27;99846.00;;;17.09;48.49
47785;BME280;35233;55.686;37.848;2023-04-29T08:51:53;99846.31;;;17.03;47.96
47785;BME280;35233;55.686;37.848;2023-04-29T08:54:18;99861.53;;;17.18;47.74
47785;BME280;35233;55.686;37.848;2023-04-29T08:56:45;99850.84;;;17.18;47.87
47785;BME280;35233;55.686;37.848;2023-04-29T08:59:13;99869.06;;;17.10;47.93
47785;BME280;35233;55.686;37.848;2023-04-29T09:01:41;99868.47;;;17.05;48.50
47785;BME280;35233;55.686;37.848;2023-04-29T09:07:04;99874.72;;;17.04;48.53
47785;BME280;35233;55.686;37.848;2023-04-29T09:09:32;99871.28;;;16.85;49.09
47785;BME280;35233;55.686;37.848;2023-04-29T09:11:58;99871.84;;;16.72;48.94
47785;BME280;35233;55.686;37.848;2023-04-29T09:14:24;99876.72;;;16.64;49.48
47785;BME280;35233;55.686;37.848;2023-04-29T09:16:49;99870.44;;;16.65;49.36
47785;BME280;35233;55.686;37.848;2023-04-29T09:19:32;99885.88;;;16.78;49.62
47785;BME280;35233;55.686;37.848;2023-04-29T09:21:58;99880.06;;;16.87;48.79
47785;BME280;35233;55.686;37.848;2023-04-29T09:24:28;99879.31;;;17.53;46.95
47785;BME280;35233;55.686;37.848;2023-04-29T09:26:58;99883.09;;;17.49;47.66
47785;BME280;35233;55.686;37.848;2023-04-29T09:29:24;99873.69;;;17.41;48.19
47785;BME280;35233;55.686;37.848;2023-04-29T09:31:49;99885.69;;;17.33;48.30
47785;BME280;35233;55.686;37.848;2023-04-29T09:34:35;99881.00;;;17.20;49.31
47785;BME280;35233;55.686;37.848;2023-04-29T09:37:02;99879.88;;;19.02;48.25
47785;BME280;35233;55.686;37.848;2023-04-29T09:39:37;99879.41;;;19.83;46.40
47785;BME280;35233;55.686;37.848;2023-04-29T09:42:03;99889.94;;;19.86;46.12
47785;BME280;35233;55.686;37.848;2023-04-29T09:44:32;99881.91;;;18.67;45.85
47785;BME280;35233;55.686;37.848;2023-04-29T09:47:08;99896.59;;;17.96;47.55
47785;BME280;35233;55.686;37.848;2023-04-29T09:49:39;99902.16;;;17.58;48.47
47785;BME280;35233;55.686;37.848;2023-04-29T09:52:23;99910.00;;;17.61;48.28
47785;BME280;35233;55.686;37.848;2023-04-29T09:54:49;99904.66;;;17.79;47.74
47785;BME280;35233;55.686;37.848;2023-04-29T09:57:14;99910.69;;;17.82;47.23
47785;BME280;35233;55.686;37.848;2023-04-29T09:59:40;99901.81;;;17.82;47.14
47785;BME280;35233;55.686;37.848;2023-04-29T10:02:14;99913.13;;;17.87;47.49
47785;BME280;35233;55.686;37.848;2023-04-29T10:04:44;99896.72;;;17.77;47.24
47785;BME280;35233;55.686;37.848;2023-04-29T10:07:14;99909.00;;;17.64;47.56
47785;BME280;35233;55.686;37.848;2023-04-29T10:09:41;99915.16;;;17.49;48.00
47785;BME280;35233;55.686;37.848;2023-04-29T10:12:06;99904.34;;;17.34;48.20
47785;BME280;35233;55.686;37.848;2023-04-29T10:14:56;99919.66;;;17.31;48.46
47785;BME280;35233;55.686;37.848;2023-04-29T10:18:10;99913.50;;;17.46;49.32
47785;BME280;35233;55.686;37.848;2023-04-29T10:20:37;99913.19;;;17.52;48.60
47785;BME280;35233;55.686;37.848;2023-04-29T10:23:05;99929.91;;;17.56;48.65
47785;BME280;35233;55.686;37.848;2023-04-29T10:25:34;99921.59;;;17.45;48.78
47785;BME280;35233;55.686;37.848;2023-04-29T10:28:02;99932.97;;;17.48;49.27
47785;BME280;35233;55.686;37.848;2023-04-29T10:30:29;99922.38;;;17.47;49.00
47785;BME280;35233;55.686;37.848;2023-04-29T10:32:58;99921.41;;;17.48;48.90
47785;BME280;35233;55.686;37.848;2023-04-29T10:35:26;99937.81;;;17.75;48.99
47785;BME280;35233;55.686;37.848;2023-04-29T10:37:52;99929.47;;;17.98;48.50
47785;BME280;35233;55.686;37.848;2023-04-29T10:40:26;99943.28;;;18.22;47.74
47785;BME280;35233;55.686;37.848;2023-04-29T10:42:55;99946.03;;;18.21;47.61
47785;BME280;35233;55.686;37.848;2023-04-29T10:45:40;99946.38;;;18.15;47.67
47785;BME280;35233;55.686;37.848;2023-04-29T10:48:12;99935.44;;;18.19;47.75
47785;BME280;35233;55.686;37.848;2023-04-29T10:53:16;99945.78;;;18.25;47.64
47785;BME280;35233;55.686;37.848;2023-04-29T10:55:46;99947.78;;;18.22;47.78
47785;BME280;35233;55.686;37.848;2023-04-29T11:01:03;99952.09;;;18.24;48.00
47785;BME280;35233;55.686;37.848;2023-04-29T11:06:23;99954.31;;;18.32;47.97
47785;BME280;35233;55.686;37.848;2023-04-29T11:09:02;99967.00;;;18.28;48.09
47785;BME280;35233;55.686;37.848;2023-04-29T11:11:41;99964.16;;;18.31;48.01
47785;BME280;35233;55.686;37.848;2023-04-29T11:14:08;99974.44;;;18.39;48.34
47785;BME280;35233;55.686;37.848;2023-04-29T11:16:35;99968.59;;;18.48;48.03
47785;BME280;35233;55.686;37.848;2023-04-29T11:19:08;99976.88;;;18.60;47.78
47785;BME280;35233;55.686;37.848;2023-04-29T11:21:35;99974.63;;;18.68;47.91
47785;BME280;35233;55.686;37.848;2023-04-29T11:24:02;99966.78;;;18.65;48.10
47785;BME280;35233;55.686;37.848;2023-04-29T11:26:28;99964.28;;;18.62;48.22
47785;BME280;35233;55.686;37.848;2023-04-29T11:29:13;99961.25;;;18.68;48.26
47785;BME280;35233;55.686;37.848;2023-04-29T11:31:38;99965.16;;;18.78;48.07
47785;BME280;35233;55.686;37.848;2023-04-29T11:34:05;99964.03;;;18.82;48.12
47785;BME280;35233;55.686;37.848;2023-04-29T11:36:32;99958.59;;;18.84;47.50
47785;BME280;35233;55.686;37.848;2023-04-29T11:39:02;99962.56;;;18.76;47.76
47785;BME280;35233;55.686;37.848;2023-04-29T11:41:28;99961.69;;;18.76;47.84
47785;BME280;35233;55.686;37.848;2023-04-29T11:43:58;99960.13;;;18.72;47.62
47785;BME280;35233;55.686;37.848;2023-04-29T11:46:42;99964.44;;;18.59;47.65
47785;BME280;35233;55.686;37.848;2023-04-29T11:49:09;99957.03;;;18.48;48.67
47785;BME280;35233;55.686;37.848;2023-04-29T11:51:35;99958.75;;;18.49;47.83
47785;BME280;35233;55.686;37.848;2023-04-29T11:54:01;99955.78;;;18.38;47.69
47785;BME280;35233;55.686;37.848;2023-04-29T11:56:26;99965.13;;;18.30;48.26
47785;BME280;35233;55.686;37.848;2023-04-29T11:59:10;99965.56;;;18.39;47.54
47785;BME280;35233;55.686;37.848;2023-04-29T12:04:45;99955.88;;;18.20;48.55
47785;BME280;35233;55.686;37.848;2023-04-29T12:07:29;99965.09;;;18.15;48.35
47785;BME280;35233;55.686;37.848;2023-04-29T12:09:55;99965.41;;;18.08;48.65
47785;BME280;35233;55.686;37.848;2023-04-29T12:15:08;99963.34;;;17.98;48.58
47785;BME280;35233;55.686;37.848;2023-04-29T12:17:34;99965.56;;;17.90;49.16
47785;BME280;35233;55.686;37.848;2023-04-29T12:20:00;99969.00;;;17.92;48.80
47785;BME280;35233;55.686;37.848;2023-04-29T12:22:32;99967.44;;;17.87;49.42
47785;BME280;35233;55.686;37.848;2023-04-29T12:24:58;99955.28;;;17.82;49.38
47785;BME280;35233;55.686;37.848;2023-04-29T12:27:23;99948.50;;;17.75;49.22
47785;BME280;35233;55.686;37.848;2023-04-29T12:29:51;99962.63;;;17.77;49.34
47785;BME280;35233;55.686;37.848;2023-04-29T12:35:26;99962.28;;;17.84;48.56
47785;BME280;35233;55.686;37.848;2023-04-29T12:37:52;99956.84;;;17.86;48.59
47785;BME280;35233;55.686;37.848;2023-04-29T12:40:17;99967.22;;;17.92;48.64
47785;BME280;35233;55.686;37.848;2023-04-29T12:42:44;99964.91;;;18.02;48.56
47785;BME280;35233;55.686;37.848;2023-04-29T12:47:52;99962.53;;;18.29;48.16
47785;BME280;35233;55.686;37.848;2023-04-29T12:50:19;99954.94;;;18.37;47.65
47785;BME280;35233;55.686;37.848;2023-04-29T12:52:45;99953.06;;;18.39;47.39
47785;BME280;35233;55.686;37.848;2023-04-29T12:55:11;99950.44;;;18.38;47.83
47785;BME280;35233;55.686;37.848;2023-04-29T12:57:36;99953.06;;;18.39;47.54
47785;BME280;35233;55.686;37.848;2023-04-29T13:00:04;99951.06;;;18.43;47.24
47785;BME280;35233;55.686;37.848;2023-04-29T13:02:30;99949.41;;;18.40;47.68
47785;BME280;35233;55.686;37.848;2023-04-29T13:04:56;99947.03;;;18.36;47.39
47785;BME280;35233;55.686;37.848;2023-04-29T13:07:21;99936.31;;;18.36;47.47
47785;BME280;35233;55.686;37.848;2023-04-29T13:09:47;99933.97;;;18.45;46.95
47785;BME280;35233;55.686;37.848;2023-04-29T13:12:12;99932.78;;;18.51;47.10
47785;BME280;35233;55.686;37.848;2023-04-29T13:14:38;99927.25;;;18.54;46.65
47785;BME280;35233;55.686;37.848;2023-04-29T13:17:03;99947.88;;;18.68;46.72
47785;BME280;35233;55.686;37.848;2023-04-29T13:19:29;99949.28;;;18.75;46.62
47785;BME280;35233;55.686;37.848;2023-04-29T13:21:54;99933.72;;;18.82;46.41
47785;BME280;35233;55.686;37.848;2023-04-29T13:24:20;99935.78;;;18.92;46.05